< < Back
Terminal Aerodrome Forecast


Current Version              Previous Versions:   1  2  3  4  5  6  7  8  9  

Terminal Aerodrome Forecast

247
FTUS42 KCAE 252000 AAC
TAFAGS
TAF AMD
KAGS 252047Z 2521/2618 24010KT P6SM SCT010 BKN025 WS020/24035KT
     FM261400 28012G22KT P6SM SCT020 BKN035=

Latest METAR

688
SAUS70 KWBC 260200 RRA
MTRAGS
METAR KAGS 260153Z 23010KT 10SM CLR 22/19 A2962 RMK AO2 RAE42 SLP029
P0001 T02220194


USA.gov is the U.S. government's official web portal to all federal, state and local government web resources and services.